Butler Co Rgnl-Hogan Field Information

FAA: HAO - ICAO: KHAO

Butler Co Rgnl-Hogan Field (Airport) Location

State Ohio
County Butler
City Hamilton
Butler Co Rgnl-Hogan Field (Airport) is 3 miles southeast of Hamilton, OH.
Latitude 39-21-49.5000N
Longitude 084-31-19.0000W
Elevation 633ft

Butler Co Rgnl-Hogan Field METARs

METAR KHAO 181253Z AUTO 00000KT 10SM OVC024 M02/M07 A3013 RMK AO2 SLP209 T10221067
Altimeter 30.13"
Temperature -2.2°C (28.0°F)
Wind 0° at 0KT
Clouds overcast at 2,400ft
Visibility 10.0mi
Time observed: 2022-01-18T12:53:00Z

Butler Co Rgnl-Hogan Field (Airport) Details

Status Operational
Activation December 1937
Ownership Public
Usage Public
Chart CINCINNATI
ATC on-site No
Beacon schedule sunset-sunrise
Beacon color clear green

Butler Co Rgnl-Hogan Field (Airport) Contacts

Owner BUTLER COUNTY BD OF COMMISSIONERS
Owner address 2820 AIRPORT ROAD EAST, HAMILTON, OH 45015
Owner phone (513) 887-3412
Manager PERCIVAL KANE, COO
Manager address CLEVELAND CLINIC E1-10, 9500 EUCLID AVE, CLEVELAND, OH 44195
Manager phone 216-317-9012

Butler Co Rgnl-Hogan Field Radio Frequencies

Butler Co Rgnl-Hogan Field (Airport) Radio Frequencies

UNICOM 123.05
Common traffic advisory frequency (CTAF) 123.05